createdAt,value
2019-03-10T00:04:56.145Z,45.90
2019-03-10T00:10:58.936Z,46.00
2019-03-10T00:17:01.664Z,46.00
2019-03-10T00:23:04.474Z,46.00
2019-03-10T00:29:07.272Z,46.00
2019-03-10T00:35:10.084Z,46.00
2019-03-10T00:41:28.423Z,46.10
2019-03-10T00:48:01.173Z,46.10
2019-03-10T00:54:03.952Z,46.20
2019-03-10T01:00:15.736Z,45.70
2019-03-10T01:06:18.452Z,46.20
2019-03-10T01:12:21.186Z,46.20
2019-03-10T01:18:23.909Z,46.30
2019-03-10T01:24:26.631Z,46.30
2019-03-10T01:30:32.609Z,46.50
2019-03-10T01:36:35.337Z,46.40
2019-03-10T01:42:38.088Z,46.50
2019-03-10T01:48:40.811Z,46.40
2019-03-10T01:54:43.600Z,46.40
2019-03-10T02:00:46.328Z,46.30
2019-03-10T02:06:49.052Z,46.30
2019-03-10T02:12:51.816Z,46.20
2019-03-10T02:18:54.621Z,46.20
2019-03-10T02:24:57.733Z,46.10
2019-03-10T02:31:00.513Z,46.10
2019-03-10T02:37:03.307Z,46.10
2019-03-10T02:43:06.033Z,46.10
2019-03-10T02:49:08.777Z,45.90
2019-03-10T02:55:11.568Z,45.90
2019-03-10T03:01:14.293Z,46.10
2019-03-10T03:07:17.066Z,46.10
2019-03-10T03:13:19.880Z,46.30
2019-03-10T03:19:42.037Z,46.30
2019-03-10T03:25:44.883Z,46.10
2019-03-10T03:31:47.727Z,46.10
2019-03-10T03:37:50.664Z,46.20
2019-03-10T03:43:53.392Z,46.20
2019-03-10T03:49:56.122Z,46.20
2019-03-10T03:55:58.844Z,46.20
2019-03-10T04:02:01.575Z,46.20
2019-03-10T04:08:04.301Z,46.20
2019-03-10T04:14:07.057Z,46.10
2019-03-10T04:20:09.848Z,46.30
2019-03-10T04:26:12.572Z,46.40
2019-03-10T04:32:15.297Z,46.10
2019-03-10T04:38:37.447Z,46.20
2019-03-10T04:44:40.172Z,46.20
2019-03-10T04:50:42.903Z,46.20
2019-03-10T04:56:45.624Z,46.20
2019-03-10T05:02:48.355Z,46.30
2019-03-10T05:08:51.099Z,46.10
2019-03-10T05:14:54.177Z,46.20
2019-03-10T05:20:56.908Z,46.30
2019-03-10T05:26:59.632Z,46.30
2019-03-10T05:33:02.684Z,46.30
2019-03-10T05:39:05.851Z,46.20
2019-03-10T05:45:08.580Z,46.20
2019-03-10T05:51:11.318Z,46.10
2019-03-10T05:57:14.040Z,46.00
2019-03-10T06:03:17.028Z,46.00
2019-03-10T06:09:19.747Z,46.00
2019-03-10T06:15:22.575Z,46.10
2019-03-10T06:21:25.384Z,46.10
2019-03-10T06:27:28.456Z,46.20
2019-03-10T06:33:50.856Z,46.20
2019-03-10T06:39:53.671Z,46.00
2019-03-10T06:45:56.746Z,45.90
2019-03-10T06:51:59.703Z,45.90
2019-03-10T06:58:02.763Z,45.90
2019-03-10T07:04:05.488Z,45.90
2019-03-10T07:10:12.708Z,45.80
2019-03-10T07:16:15.431Z,45.80
2019-03-10T07:22:18.162Z,45.70
2019-03-10T07:28:20.961Z,45.70
2019-03-10T07:34:23.688Z,45.70
2019-03-10T07:40:26.449Z,45.60
2019-03-10T07:46:29.198Z,45.50
2019-03-10T07:52:31.987Z,45.40
2019-03-10T07:58:35.031Z,45.30
2019-03-10T08:04:37.810Z,45.30
2019-03-10T08:10:40.537Z,45.10
2019-03-10T08:16:43.283Z,45.10
2019-03-10T08:22:46.028Z,45.10
2019-03-10T08:28:48.743Z,45.00
2019-03-10T08:34:51.464Z,45.10
2019-03-10T08:40:54.221Z,47.40
2019-03-10T08:46:57.024Z,48.20
2019-03-10T08:52:59.752Z,48.70
2019-03-10T08:59:02.539Z,48.80
2019-03-10T09:05:05.692Z,48.50
2019-03-10T09:11:08.435Z,48.60
2019-03-10T09:17:11.412Z,48.90
2019-03-10T09:23:14.221Z,48.70
2019-03-10T09:29:17.055Z,48.10
2019-03-10T09:35:19.784Z,47.50
2019-03-10T09:41:22.519Z,47.10
2019-03-10T09:47:25.556Z,46.80
2019-03-10T09:53:28.554Z,47.60
2019-03-10T09:59:32.249Z,47.80
2019-03-10T10:05:34.993Z,48.20
2019-03-10T10:11:37.711Z,47.60
2019-03-10T10:17:40.696Z,47.00
2019-03-10T10:23:43.519Z,46.70
2019-03-10T10:29:46.256Z,47.00
2019-03-10T10:35:48.983Z,47.60
2019-03-10T10:41:51.764Z,46.60
2019-03-10T10:47:54.500Z,46.30
2019-03-10T10:53:57.540Z,46.20
2019-03-10T11:00:00.342Z,46.00
2019-03-10T11:06:03.176Z,45.90
2019-03-10T11:12:05.908Z,45.80
2019-03-10T11:18:09.921Z,45.80
2019-03-10T11:24:12.731Z,45.70
2019-03-10T11:30:15.807Z,45.60
2019-03-10T11:36:18.552Z,45.70
2019-03-10T11:42:21.299Z,45.60
2019-03-10T11:48:24.284Z,45.60
2019-03-10T11:54:27.016Z,45.50
2019-03-10T12:00:29.744Z,45.50
2019-03-10T12:06:32.744Z,45.50
2019-03-10T12:12:35.771Z,45.40
2019-03-10T12:18:38.496Z,45.40
2019-03-10T12:24:41.225Z,45.40
2019-03-10T12:31:03.388Z,45.40
2019-03-10T12:37:06.360Z,45.50
2019-03-10T12:43:09.220Z,45.40
2019-03-10T12:49:11.953Z,45.30
2019-03-10T12:55:14.684Z,45.40
2019-03-10T13:01:17.673Z,45.40
2019-03-10T13:07:20.399Z,45.40
2019-03-10T13:13:23.128Z,48.20
2019-03-10T13:19:25.860Z,48.70
2019-03-10T13:25:28.588Z,48.80
2019-03-10T13:31:31.319Z,48.60
2019-03-10T13:37:34.047Z,48.70
2019-03-10T13:43:36.844Z,49.10
2019-03-10T13:49:39.584Z,48.90
2019-03-10T13:55:42.356Z,48.20
2019-03-10T14:01:45.084Z,47.90
2019-03-10T14:07:47.818Z,47.70
2019-03-10T14:13:50.570Z,47.50
2019-03-10T14:19:53.312Z,47.20
2019-03-10T14:25:56.044Z,47.60
2019-03-10T14:31:58.804Z,47.90
2019-03-10T14:38:01.591Z,48.20
2019-03-10T14:44:04.578Z,48.40
2019-03-10T14:50:09.740Z,49.00
2019-03-10T14:56:12.468Z,48.90
2019-03-10T15:02:15.200Z,49.60
2019-03-10T15:08:17.931Z,50.10
2019-03-10T15:20:28.408Z,52.10
2019-03-10T15:26:31.160Z,50.80
2019-03-10T15:32:33.896Z,50.70
2019-03-10T15:38:36.623Z,50.50
2019-03-10T15:44:39.377Z,50.80
2019-03-10T15:50:42.183Z,51.30
2019-03-10T15:56:45.199Z,50.90
2019-03-10T16:02:47.928Z,50.60
2019-03-10T16:08:50.745Z,50.30
2019-03-10T16:14:53.474Z,50.10
2019-03-10T16:20:56.204Z,50.30
2019-03-10T16:26:58.945Z,49.50
2019-03-10T16:33:01.680Z,49.70
2019-03-10T16:39:06.156Z,49.20
2019-03-10T16:45:14.548Z,48.90
2019-03-10T16:51:17.272Z,48.60
2019-03-10T16:57:20.000Z,48.40
2019-03-10T17:03:22.736Z,48.30
2019-03-10T17:09:25.460Z,48.10
2019-03-10T17:15:28.528Z,47.90
2019-03-10T17:21:31.264Z,47.80
2019-03-10T17:27:33.984Z,47.90
2019-03-10T17:33:36.716Z,47.80
2019-03-10T17:39:39.435Z,47.80
2019-03-10T17:45:42.174Z,48.50
2019-03-10T17:51:44.899Z,49.30
2019-03-10T17:57:47.643Z,49.20
2019-03-10T18:03:50.364Z,49.40
2019-03-10T18:09:53.091Z,49.40
2019-03-10T18:15:55.820Z,50.50
2019-03-10T18:22:00.180Z,49.40
2019-03-10T18:28:02.999Z,49.80
2019-03-10T18:34:05.809Z,49.30
2019-03-10T18:40:17.380Z,48.50
2019-03-10T18:46:20.103Z,48.30
2019-03-10T18:52:22.832Z,48.20
2019-03-10T18:58:25.557Z,48.20
2019-03-10T19:04:28.289Z,48.00
2019-03-10T19:10:31.092Z,47.90
2019-03-10T19:16:33.818Z,47.70
2019-03-10T19:22:36.556Z,47.60
2019-03-10T19:28:39.312Z,47.50
2019-03-10T19:34:42.396Z,47.60
2019-03-10T19:40:45.123Z,47.50
2019-03-10T19:46:47.844Z,47.60
2019-03-10T19:52:50.648Z,47.50
2019-03-10T19:58:53.376Z,47.50
2019-03-10T20:04:56.172Z,47.40
2019-03-10T20:10:59.232Z,47.40
2019-03-10T20:17:01.971Z,47.40
2019-03-10T20:23:04.779Z,47.40
2019-03-10T20:29:07.504Z,47.50
2019-03-10T20:35:10.249Z,47.30
2019-03-10T20:41:12.984Z,47.30
2019-03-10T20:47:15.736Z,47.30
2019-03-10T20:53:18.472Z,47.30
2019-03-10T20:59:21.202Z,47.30
2019-03-10T21:44:26.631Z,46.80
2019-03-10T21:50:25.554Z,46.80
2019-03-10T21:56:28.280Z,47.20
2019-03-10T22:02:31.014Z,47.00
2019-03-10T22:08:33.736Z,46.90
2019-03-10T22:14:36.466Z,47.00
2019-03-10T22:20:58.616Z,47.00
2019-03-10T22:27:01.667Z,47.00
2019-03-10T22:33:04.392Z,47.00
2019-03-10T22:39:07.115Z,47.00
2019-03-10T22:45:19.240Z,47.00
2019-03-10T22:51:22.029Z,47.00
2019-03-10T22:57:24.848Z,46.90
2019-03-10T23:03:27.571Z,47.00
2019-03-10T23:09:30.303Z,47.00
2019-03-10T23:15:33.033Z,46.90
2019-03-10T23:21:35.757Z,46.80
2019-03-10T23:27:38.476Z,46.90
2019-03-10T23:33:41.200Z,46.90
2019-03-10T23:39:43.924Z,46.80
2019-03-10T23:45:46.693Z,46.80
2019-03-10T23:51:49.415Z,46.80
2019-03-10T23:57:52.147Z,46.80
